createdAt,value
2022-10-31T00:00:49.625Z,14.20
2022-10-31T00:03:17.718Z,14.20
2022-10-31T00:05:46.711Z,14.20
2022-10-31T00:08:14.160Z,14.10
2022-10-31T00:10:42.590Z,14.10
2022-10-31T00:13:11.072Z,14.10
2022-10-31T00:15:39.469Z,14.00
2022-10-31T00:18:07.351Z,14.00
2022-10-31T00:20:34.514Z,13.90
2022-10-31T00:23:02.843Z,13.90
2022-10-31T00:25:33.601Z,13.90
2022-10-31T00:28:00.755Z,13.80
2022-10-31T00:30:27.763Z,13.80
2022-10-31T00:32:54.625Z,13.90
2022-10-31T00:35:21.362Z,13.90
2022-10-31T00:37:48.092Z,13.90
2022-10-31T00:40:14.906Z,13.80
2022-10-31T00:42:42.671Z,13.80
2022-10-31T00:45:10.948Z,13.80
2022-10-31T00:47:37.775Z,13.70
2022-10-31T00:50:06.665Z,13.70
2022-10-31T00:52:33.542Z,13.70
2022-10-31T00:55:00.334Z,13.70
2022-10-31T00:57:27.437Z,13.50
2022-10-31T00:59:54.184Z,13.40
2022-10-31T01:02:21.054Z,13.30
2022-10-31T01:04:48.038Z,13.50
2022-10-31T01:07:15.093Z,13.40
2022-10-31T01:09:42.419Z,13.50
2022-10-31T01:12:09.536Z,13.40
2022-10-31T01:14:36.269Z,13.40
2022-10-31T01:17:03.210Z,13.40
2022-10-31T01:19:30.048Z,13.40
2022-10-31T01:21:56.925Z,13.30
2022-10-31T01:24:23.830Z,13.20
2022-10-31T01:26:50.806Z,13.10
2022-10-31T01:29:17.647Z,13.20
2022-10-31T01:31:44.449Z,13.10
2022-10-31T01:34:16.923Z,13.10
2022-10-31T01:36:45.937Z,13.00
2022-10-31T01:39:15.395Z,12.90
2022-10-31T01:41:51.349Z,12.90
2022-10-31T01:44:18.073Z,13.00
2022-10-31T01:47:04.820Z,13.00
2022-10-31T01:49:46.801Z,12.90
2022-10-31T01:52:21.761Z,12.90
2022-10-31T01:54:59.429Z,12.90
2022-10-31T01:57:27.236Z,12.90
2022-10-31T02:00:00.080Z,12.80
2022-10-31T02:02:30.730Z,12.90
2022-10-31T02:04:57.912Z,12.90
2022-10-31T02:07:35.325Z,12.80
2022-10-31T02:10:03.471Z,12.80
2022-10-31T02:12:32.649Z,12.70
2022-10-31T02:15:00.995Z,12.80
2022-10-31T02:17:27.812Z,12.70
2022-10-31T02:20:22.028Z,12.70
2022-10-31T02:23:25.639Z,12.70
2022-10-31T02:26:22.797Z,12.80
2022-10-31T02:29:10.888Z,12.80
2022-10-31T02:32:09.156Z,12.80
2022-10-31T02:34:41.410Z,12.80
2022-10-31T02:37:54.064Z,12.80
2022-10-31T02:40:37.068Z,12.80
2022-10-31T02:43:27.075Z,13.00
2022-10-31T02:46:04.126Z,12.90
2022-10-31T02:48:36.344Z,13.00
2022-10-31T02:51:05.136Z,12.90
2022-10-31T02:53:36.130Z,12.90
2022-10-31T02:56:08.250Z,13.00
2022-10-31T02:58:39.164Z,13.10
2022-10-31T03:02:02.394Z,13.10
2022-10-31T03:04:29.171Z,13.20
2022-10-31T03:07:08.750Z,13.20
2022-10-31T03:10:02.216Z,13.30
2022-10-31T03:12:48.555Z,13.30
2022-10-31T03:15:24.088Z,13.40
2022-10-31T03:17:59.581Z,13.40
2022-10-31T03:20:49.965Z,13.50
2022-10-31T03:23:18.739Z,13.50
2022-10-31T03:25:47.849Z,13.50
2022-10-31T03:30:52.345Z,13.50
2022-10-31T03:33:25.493Z,13.50
2022-10-31T03:35:56.525Z,13.40
2022-10-31T03:38:23.989Z,13.40
2022-10-31T03:40:52.980Z,13.40
2022-10-31T03:43:27.752Z,13.30
2022-10-31T03:45:54.834Z,13.30
2022-10-31T03:48:22.849Z,13.30
2022-10-31T03:51:09.381Z,13.20
2022-10-31T03:53:44.390Z,13.00
2022-10-31T03:56:36.465Z,13.00
2022-10-31T03:59:08.628Z,12.90
2022-10-31T04:01:41.013Z,13.00
2022-10-31T04:04:10.121Z,12.90
2022-10-31T04:06:40.047Z,12.90
2022-10-31T04:09:10.494Z,12.80
2022-10-31T04:11:44.903Z,12.80
2022-10-31T04:14:12.974Z,12.90
2022-10-31T04:16:43.770Z,12.90
2022-10-31T04:19:12.038Z,12.90
2022-10-31T04:21:39.076Z,12.70
2022-10-31T04:24:08.376Z,12.70
2022-10-31T04:26:35.129Z,12.80
2022-10-31T04:29:02.233Z,12.90
2022-10-31T04:31:29.110Z,12.90
2022-10-31T04:33:55.994Z,13.00
2022-10-31T04:36:22.733Z,13.00
2022-10-31T04:38:52.458Z,13.00
2022-10-31T04:41:19.430Z,12.80
2022-10-31T04:43:46.352Z,12.80
2022-10-31T04:46:15.779Z,12.70
2022-10-31T04:48:42.796Z,12.80
2022-10-31T04:51:09.754Z,12.90
2022-10-31T04:53:36.599Z,12.90
2022-10-31T04:56:03.820Z,12.90
2022-10-31T04:58:30.893Z,12.70
2022-10-31T05:00:58.314Z,12.60
2022-10-31T05:03:25.327Z,12.60
2022-10-31T05:05:52.483Z,12.60
2022-10-31T05:08:19.228Z,12.50
2022-10-31T05:10:46.305Z,12.50
2022-10-31T05:13:14.789Z,12.60
2022-10-31T05:15:41.568Z,12.70
2022-10-31T05:18:08.425Z,12.80
2022-10-31T05:20:35.189Z,12.60
2022-10-31T05:23:02.654Z,12.60
2022-10-31T05:25:30.624Z,12.60
2022-10-31T05:28:00.523Z,12.50
2022-10-31T05:30:29.974Z,12.50
2022-10-31T05:32:57.280Z,12.60
2022-10-31T05:35:33.024Z,12.60
2022-10-31T05:38:00.564Z,12.60
2022-10-31T05:40:28.892Z,12.60
2022-10-31T05:42:57.180Z,12.70
2022-10-31T05:45:24.695Z,12.60
2022-10-31T05:47:59.838Z,12.60
2022-10-31T05:50:29.188Z,12.60
2022-10-31T05:53:07.097Z,12.40
2022-10-31T05:55:34.038Z,12.50
2022-10-31T05:58:01.774Z,12.50
2022-10-31T06:00:29.885Z,12.50
2022-10-31T06:03:01.739Z,12.50
2022-10-31T06:05:29.506Z,12.50
2022-10-31T06:07:57.220Z,12.40
2022-10-31T06:10:24.539Z,12.40
2022-10-31T06:12:54.504Z,12.40
2022-10-31T06:15:24.387Z,12.50
2022-10-31T06:18:05.592Z,12.60
2022-10-31T06:20:33.805Z,12.60
2022-10-31T06:23:01.423Z,12.60
2022-10-31T06:25:29.273Z,12.70
2022-10-31T06:27:56.935Z,12.70
2022-10-31T06:30:24.089Z,12.70
2022-10-31T06:32:50.922Z,12.70
2022-10-31T06:35:18.339Z,12.70
2022-10-31T06:37:55.189Z,12.80
2022-10-31T06:40:22.570Z,12.80
2022-10-31T06:43:03.638Z,12.90
2022-10-31T06:45:30.525Z,12.90
2022-10-31T06:53:15.372Z,13.00
2022-10-31T06:55:43.016Z,13.00
2022-10-31T06:58:11.663Z,13.10
2022-10-31T07:00:39.069Z,13.20
2022-10-31T07:03:08.316Z,13.30
2022-10-31T07:05:35.843Z,13.40
2022-10-31T07:08:07.562Z,13.40
2022-10-31T07:10:40.074Z,13.50
2022-10-31T07:13:13.683Z,13.60
2022-10-31T07:15:42.264Z,13.70
2022-10-31T07:18:10.891Z,13.80
2022-10-31T07:20:40.572Z,13.80
2022-10-31T07:23:07.412Z,13.80
2022-10-31T07:25:34.313Z,13.40
2022-10-31T07:28:01.384Z,13.30
2022-10-31T07:30:28.655Z,13.20
2022-10-31T07:32:56.520Z,13.10
2022-10-31T07:35:25.627Z,13.10
2022-10-31T07:37:52.971Z,13.00
2022-10-31T07:40:20.761Z,13.10
2022-10-31T07:42:52.709Z,13.20
2022-10-31T07:45:21.750Z,13.10
2022-10-31T07:47:51.498Z,13.20
2022-10-31T07:50:21.713Z,13.40
2022-10-31T07:52:48.715Z,13.60
2022-10-31T07:55:15.929Z,13.60
2022-10-31T07:57:42.996Z,13.60
2022-10-31T08:00:11.535Z,13.60
2022-10-31T08:02:38.298Z,13.80
2022-10-31T08:05:05.523Z,13.70
2022-10-31T08:07:38.412Z,13.80
2022-10-31T08:10:06.358Z,14.00
2022-10-31T08:12:33.198Z,14.10
2022-10-31T08:15:00.195Z,14.10
2022-10-31T08:17:27.379Z,14.20
2022-10-31T08:19:57.317Z,14.30
2022-10-31T08:22:24.156Z,14.10
2022-10-31T08:24:51.042Z,14.00
2022-10-31T08:27:20.578Z,14.00
2022-10-31T08:29:47.313Z,14.10
2022-10-31T08:32:14.786Z,14.30
2022-10-31T08:34:41.679Z,14.10
2022-10-31T08:37:08.511Z,14.20
2022-10-31T08:39:35.332Z,14.00
2022-10-31T08:42:02.126Z,14.10
2022-10-31T08:44:30.267Z,14.00
2022-10-31T08:46:57.163Z,13.90
2022-10-31T08:49:24.009Z,14.00
2022-10-31T08:51:50.814Z,14.00
2022-10-31T08:54:17.676Z,13.80
2022-10-31T08:56:47.014Z,13.90
2022-10-31T08:59:16.699Z,13.90
2022-10-31T09:01:43.639Z,14.00
2022-10-31T09:04:10.427Z,14.10
2022-10-31T09:06:38.145Z,14.20
2022-10-31T09:09:04.966Z,14.30
2022-10-31T09:11:32.400Z,14.20
2022-10-31T09:13:59.229Z,14.30
2022-10-31T09:16:26.146Z,14.40
2022-10-31T09:18:52.941Z,14.50
2022-10-31T09:21:19.768Z,14.60
2022-10-31T09:23:46.554Z,14.60
2022-10-31T09:26:13.578Z,14.60
2022-10-31T09:28:40.354Z,14.50
2022-10-31T09:31:07.165Z,14.60
2022-10-31T09:33:34.009Z,14.70
2022-10-31T09:36:00.963Z,14.90
2022-10-31T09:38:27.750Z,14.90
2022-10-31T09:41:07.777Z,15.00
2022-10-31T09:43:58.897Z,15.10
2022-10-31T09:46:42.372Z,15.30
2022-10-31T09:49:33.687Z,15.40
2022-10-31T09:52:21.479Z,15.40
2022-10-31T09:54:55.781Z,15.40
2022-10-31T09:57:30.918Z,15.50
2022-10-31T09:59:58.746Z,15.50
2022-10-31T10:02:43.082Z,15.60
2022-10-31T10:05:45.251Z,15.70
2022-10-31T10:08:24.846Z,15.80
2022-10-31T10:10:58.113Z,15.90
2022-10-31T10:13:36.289Z,15.70
2022-10-31T10:16:15.569Z,15.70
2022-10-31T10:19:07.286Z,15.90
2022-10-31T10:21:53.877Z,16.00
2022-10-31T10:24:37.676Z,16.20
2022-10-31T10:27:27.877Z,16.20
2022-10-31T10:30:05.127Z,16.20
2022-10-31T10:32:41.499Z,16.20
2022-10-31T10:35:49.151Z,16.40
2022-10-31T10:38:30.059Z,16.50
2022-10-31T10:40:59.188Z,16.60
2022-10-31T10:43:35.698Z,16.70
2022-10-31T10:46:45.234Z,16.70
2022-10-31T10:49:14.793Z,17.20
2022-10-31T10:55:11.655Z,16.80
2022-10-31T10:57:56.805Z,16.80
2022-10-31T11:00:30.780Z,16.90
2022-10-31T11:02:57.656Z,16.90
2022-10-31T11:05:48.634Z,17.30
2022-10-31T11:08:27.386Z,17.50
2022-10-31T11:11:05.057Z,17.70
2022-10-31T11:13:33.915Z,17.60
2022-10-31T11:16:01.048Z,17.90
2022-10-31T11:18:31.034Z,17.70
2022-10-31T11:21:00.262Z,17.90
2022-10-31T11:23:29.542Z,17.90
2022-10-31T11:26:07.621Z,18.00
2022-10-31T11:28:40.559Z,17.90
2022-10-31T11:31:09.905Z,18.00
2022-10-31T11:33:47.548Z,18.00
2022-10-31T11:36:30.514Z,18.20
2022-10-31T11:39:00.179Z,18.10
2022-10-31T11:41:42.285Z,18.00
2022-10-31T11:44:19.636Z,17.90
2022-10-31T11:46:50.893Z,17.90
2022-10-31T11:49:44.856Z,17.70
2022-10-31T11:52:21.515Z,17.60
2022-10-31T11:54:50.151Z,17.60
2022-10-31T11:57:30.641Z,17.60
2022-10-31T12:00:00.176Z,17.70
2022-10-31T12:02:27.993Z,17.80
2022-10-31T12:05:09.189Z,17.80
2022-10-31T12:07:36.173Z,17.90
2022-10-31T12:10:12.124Z,17.80
2022-10-31T12:12:44.781Z,17.80
2022-10-31T12:15:23.765Z,17.70
2022-10-31T12:20:52.202Z,17.70
2022-10-31T12:23:25.107Z,17.90
2022-10-31T12:25:55.535Z,17.90
2022-10-31T12:28:44.930Z,18.00
2022-10-31T12:31:20.890Z,18.10
2022-10-31T12:34:03.214Z,18.20
2022-10-31T12:36:51.450Z,18.30
2022-10-31T12:39:53.200Z,18.20
2022-10-31T12:42:47.565Z,18.10
2022-10-31T12:45:39.818Z,18.00
2022-10-31T12:48:25.027Z,18.10
2022-10-31T12:50:57.128Z,18.10
2022-10-31T12:53:41.186Z,18.00
2022-10-31T12:56:16.369Z,18.10
2022-10-31T12:59:20.282Z,18.20
2022-10-31T13:02:01.015Z,18.20
2022-10-31T13:04:42.681Z,18.10
2022-10-31T13:07:19.347Z,18.00
2022-10-31T13:10:16.565Z,18.10
2022-10-31T13:12:44.565Z,18.10
2022-10-31T13:15:25.538Z,18.10
2022-10-31T13:17:59.323Z,18.20
2022-10-31T13:20:54.746Z,18.30
2022-10-31T13:23:50.330Z,18.30
2022-10-31T13:26:39.692Z,18.30
2022-10-31T13:29:26.945Z,18.40
2022-10-31T13:31:57.430Z,18.40
2022-10-31T13:34:33.406Z,18.40
2022-10-31T13:37:33.754Z,18.50
2022-10-31T13:40:06.870Z,18.50
2022-10-31T13:42:39.755Z,18.40
2022-10-31T13:45:18.596Z,18.40
2022-10-31T13:48:18.428Z,18.50
2022-10-31T13:51:02.123Z,18.40
2022-10-31T13:53:57.348Z,18.40
2022-10-31T13:56:25.969Z,18.40
2022-10-31T13:59:10.709Z,18.30
2022-10-31T14:01:38.497Z,18.30
2022-10-31T14:04:14.051Z,18.20
2022-10-31T14:07:10.667Z,18.20
2022-10-31T14:10:04.297Z,18.20
2022-10-31T14:12:33.264Z,18.10
2022-10-31T14:15:25.026Z,18.10
2022-10-31T14:18:01.617Z,18.00
2022-10-31T14:20:40.261Z,18.00
2022-10-31T14:23:13.464Z,18.10
2022-10-31T14:25:41.635Z,18.00
2022-10-31T14:28:40.874Z,18.00
2022-10-31T14:31:27.538Z,18.10
2022-10-31T14:33:56.079Z,18.00
2022-10-31T14:36:42.643Z,18.00
2022-10-31T14:39:25.457Z,18.00
2022-10-31T14:42:23.143Z,18.00
2022-10-31T14:45:12.190Z,18.00
2022-10-31T14:47:57.753Z,17.30
2022-10-31T14:51:06.564Z,17.90
2022-10-31T14:53:43.207Z,17.90
2022-10-31T14:56:13.272Z,17.90
2022-10-31T14:58:46.769Z,17.80
2022-10-31T15:01:34.727Z,17.70
2022-10-31T15:04:25.184Z,17.70
2022-10-31T15:07:24.705Z,17.60
2022-10-31T15:10:25.123Z,17.60
2022-10-31T15:12:52.409Z,17.60
2022-10-31T15:15:27.121Z,17.50
2022-10-31T15:18:00.616Z,17.60
2022-10-31T15:20:37.144Z,17.60
2022-10-31T15:23:04.183Z,17.60
2022-10-31T15:25:34.855Z,17.60
2022-10-31T15:28:02.143Z,17.60
2022-10-31T15:30:30.268Z,17.60
2022-10-31T15:32:59.311Z,17.50
2022-10-31T15:35:30.156Z,17.50
2022-10-31T15:37:59.215Z,17.50
2022-10-31T15:40:28.130Z,17.40
2022-10-31T15:43:01.374Z,17.40
2022-10-31T15:45:31.480Z,17.40
2022-10-31T15:48:05.088Z,17.40
2022-10-31T15:50:37.824Z,17.30
2022-10-31T15:53:07.038Z,17.30
2022-10-31T15:55:46.075Z,17.30
2022-10-31T15:58:15.809Z,17.40
2022-10-31T16:00:43.056Z,17.30
2022-10-31T16:03:16.607Z,17.30
2022-10-31T16:05:51.443Z,17.20
2022-10-31T16:08:38.504Z,17.20
2022-10-31T16:11:08.046Z,17.10
2022-10-31T16:13:37.437Z,17.10
2022-10-31T16:16:34.099Z,17.00
2022-10-31T16:19:04.878Z,17.00
2022-10-31T16:21:35.855Z,17.00
2022-10-31T16:24:06.946Z,17.00
2022-10-31T16:26:34.548Z,16.90
2022-10-31T16:29:08.499Z,16.80
2022-10-31T16:31:40.602Z,16.70
2022-10-31T16:34:26.011Z,16.70
2022-10-31T16:36:54.169Z,16.70
2022-10-31T16:39:21.552Z,16.70
2022-10-31T16:41:52.689Z,16.60
2022-10-31T16:44:27.209Z,16.60
2022-10-31T16:47:17.487Z,16.60
2022-10-31T16:49:47.354Z,16.60
2022-10-31T16:52:14.204Z,16.70
2022-10-31T16:54:41.119Z,16.60
2022-10-31T16:57:13.733Z,16.60
2022-10-31T16:59:40.555Z,16.50
2022-10-31T17:02:16.137Z,16.40
2022-10-31T17:04:43.214Z,16.30
2022-10-31T17:07:10.057Z,16.20
2022-10-31T17:09:37.126Z,16.10
2022-10-31T17:12:05.254Z,16.00
2022-10-31T17:14:32.582Z,15.90
2022-10-31T17:16:59.404Z,16.00
2022-10-31T17:19:26.295Z,16.00
2022-10-31T17:21:53.086Z,16.10
2022-10-31T17:24:19.870Z,16.00
2022-10-31T17:26:47.317Z,16.10
2022-10-31T17:29:15.220Z,16.10
2022-10-31T17:31:42.518Z,16.20
2022-10-31T17:34:09.836Z,16.20
2022-10-31T17:36:37.223Z,16.10
2022-10-31T17:39:07.527Z,15.90
2022-10-31T17:41:34.379Z,16.00
2022-10-31T17:44:01.193Z,15.90
2022-10-31T17:46:29.092Z,15.90
2022-10-31T17:48:55.946Z,15.90
2022-10-31T17:51:22.922Z,15.90
2022-10-31T17:53:49.669Z,15.80
2022-10-31T17:56:16.537Z,15.80
2022-10-31T17:58:43.395Z,15.90
2022-10-31T18:01:17.021Z,15.80
2022-10-31T18:03:45.288Z,15.70
2022-10-31T18:06:16.994Z,15.60
2022-10-31T18:08:44.307Z,15.60
2022-10-31T18:11:16.261Z,15.50
2022-10-31T18:13:43.784Z,15.50
2022-10-31T18:16:13.516Z,15.50
2022-10-31T18:18:40.852Z,15.40
2022-10-31T18:21:07.806Z,15.40
2022-10-31T18:23:34.576Z,15.20
2022-10-31T18:26:01.373Z,15.10
2022-10-31T18:28:28.154Z,15.00
2022-10-31T18:30:54.974Z,14.90
2022-10-31T18:33:21.891Z,14.90
2022-10-31T18:35:48.643Z,14.90
2022-10-31T18:38:15.372Z,14.90
2022-10-31T18:40:42.305Z,14.80
2022-10-31T18:43:09.127Z,14.70
2022-10-31T18:45:57.721Z,14.80
2022-10-31T18:48:25.256Z,14.70
2022-10-31T18:50:52.464Z,14.70
2022-10-31T18:53:19.366Z,14.70
2022-10-31T18:55:49.215Z,14.80
2022-10-31T18:58:17.773Z,14.70
2022-10-31T19:00:46.082Z,14.60
2022-10-31T19:03:15.052Z,14.70
2022-10-31T19:05:41.855Z,14.70
2022-10-31T19:08:09.080Z,14.70
2022-10-31T19:10:37.373Z,14.80
2022-10-31T19:13:05.440Z,14.60
2022-10-31T19:15:34.801Z,14.50
2022-10-31T19:18:01.871Z,14.40
2022-10-31T19:20:28.726Z,14.40
2022-10-31T19:22:55.665Z,14.40
2022-10-31T19:25:22.625Z,14.40
2022-10-31T19:27:49.617Z,14.50
2022-10-31T19:30:16.767Z,14.60
2022-10-31T19:32:43.547Z,14.70
2022-10-31T19:35:11.580Z,14.70
2022-10-31T19:37:40.131Z,14.60
2022-10-31T19:40:08.982Z,14.60
2022-10-31T19:42:36.462Z,14.60
2022-10-31T19:45:04.391Z,14.60
2022-10-31T19:47:32.103Z,14.60
2022-10-31T19:49:58.877Z,14.60
2022-10-31T19:52:25.695Z,14.70
2022-10-31T19:57:30.832Z,14.60
2022-10-31T20:00:07.293Z,14.70
2022-10-31T20:02:36.743Z,14.70
2022-10-31T20:05:03.672Z,14.70
2022-10-31T20:07:30.798Z,14.80
2022-10-31T20:09:58.191Z,14.80
2022-10-31T20:12:28.004Z,14.80
2022-10-31T20:14:54.824Z,14.80
2022-10-31T20:17:21.681Z,14.80
2022-10-31T20:19:48.524Z,14.70
2022-10-31T20:22:18.207Z,14.90
2022-10-31T20:24:44.977Z,14.80
2022-10-31T20:27:15.275Z,14.90
2022-10-31T20:29:42.346Z,15.00
2022-10-31T20:32:09.454Z,14.90
2022-10-31T20:34:36.441Z,14.90
2022-10-31T20:37:05.126Z,14.90
2022-10-31T20:39:32.314Z,14.80
2022-10-31T20:42:01.167Z,14.70
2022-10-31T20:44:28.059Z,14.70
2022-10-31T20:46:55.292Z,14.70
2022-10-31T20:49:22.633Z,14.70
2022-10-31T20:51:49.580Z,14.70
2022-10-31T20:54:20.539Z,14.70
2022-10-31T20:56:47.842Z,14.60
2022-10-31T20:59:16.020Z,14.60
2022-10-31T21:01:45.858Z,14.60
2022-10-31T21:04:12.995Z,14.60
2022-10-31T21:06:43.998Z,14.60
2022-10-31T21:09:13.800Z,14.60
2022-10-31T21:11:40.767Z,14.60
2022-10-31T21:14:07.625Z,14.60
2022-10-31T21:16:36.599Z,14.60
2022-10-31T21:19:04.981Z,14.60
2022-10-31T21:21:34.705Z,14.50
2022-10-31T21:24:07.343Z,14.50
2022-10-31T21:26:37.735Z,14.50
2022-10-31T21:29:05.934Z,14.70
2022-10-31T21:31:35.150Z,14.80
2022-10-31T21:34:02.502Z,14.90
2022-10-31T21:36:29.513Z,14.80
2022-10-31T21:38:57.149Z,14.80
2022-10-31T21:41:27.617Z,14.80
2022-10-31T21:43:55.242Z,14.80
2022-10-31T21:46:27.872Z,14.70
2022-10-31T21:48:57.455Z,14.80
2022-10-31T21:51:32.476Z,14.70
2022-10-31T21:54:18.835Z,14.70
2022-10-31T21:56:46.056Z,14.60
2022-10-31T21:59:13.625Z,14.50
2022-10-31T22:01:41.038Z,14.40
2022-10-31T22:04:08.913Z,14.40
2022-10-31T22:06:37.285Z,14.30
2022-10-31T22:09:07.003Z,14.20
2022-10-31T22:11:34.557Z,14.20
2022-10-31T22:14:02.426Z,14.20
2022-10-31T22:16:30.808Z,14.20
2022-10-31T22:18:59.507Z,14.10
2022-10-31T22:21:28.592Z,14.10
2022-10-31T22:24:03.221Z,14.10
2022-10-31T22:26:34.599Z,14.00
2022-10-31T22:29:04.739Z,14.00
2022-10-31T22:31:33.271Z,14.00
2022-10-31T22:34:00.816Z,13.90
2022-10-31T22:36:29.843Z,13.90
2022-10-31T22:38:57.833Z,14.10
2022-10-31T22:41:35.785Z,14.10
2022-10-31T22:44:03.860Z,14.00
2022-10-31T22:46:34.029Z,14.10
2022-10-31T22:49:03.242Z,14.00
2022-10-31T22:51:32.984Z,14.00
2022-10-31T22:54:03.215Z,13.90
2022-10-31T22:56:32.759Z,13.80
2022-10-31T22:59:00.584Z,13.70
2022-10-31T23:01:31.195Z,13.60
2022-10-31T23:03:58.742Z,13.70
2022-10-31T23:06:28.054Z,13.70
2022-10-31T23:08:54.979Z,13.70
2022-10-31T23:11:23.868Z,13.80
2022-10-31T23:14:14.829Z,13.80
2022-10-31T23:16:57.809Z,13.80
2022-10-31T23:19:29.573Z,13.70
2022-10-31T23:22:00.672Z,13.60
2022-10-31T23:24:44.608Z,13.50
2022-10-31T23:27:19.108Z,13.60
2022-10-31T23:29:51.673Z,13.50
2022-10-31T23:32:30.535Z,13.50
2022-10-31T23:34:59.407Z,13.40
2022-10-31T23:37:32.025Z,13.50
2022-10-31T23:39:59.144Z,13.40
2022-10-31T23:42:27.175Z,13.40
2022-10-31T23:44:54.384Z,13.30
2022-10-31T23:47:21.840Z,13.30
2022-10-31T23:49:49.566Z,13.40
2022-10-31T23:52:16.770Z,13.40
2022-10-31T23:54:44.229Z,13.40
2022-10-31T23:57:13.248Z,13.50
2022-10-31T23:59:40.113Z,13.60
